sensor_id;sensor_type;location;lat;lon;timestamp;pressure;altitude;pressure_sealevel;temperature;humidity
77877;BME280;67251;50.844;7.978;2024-01-07T00:01:58;98521.31;;;0.22;100.00
77877;BME280;67251;50.844;7.978;2024-01-07T00:04:24;98524.25;;;0.19;100.00
77877;BME280;67251;50.844;7.978;2024-01-07T00:06:49;98526.00;;;0.18;100.00
77877;BME280;67251;50.844;7.978;2024-01-07T00:09:16;98525.19;;;0.18;100.00
77877;BME280;67251;50.844;7.978;2024-01-07T00:11:41;98525.19;;;0.18;100.00
77877;BME280;67251;50.844;7.978;2024-01-07T00:14:06;98525.19;;;0.18;100.00
77877;BME280;67251;50.844;7.978;2024-01-07T00:16:32;98528.78;;;0.17;100.00
77877;BME280;67251;50.844;7.978;2024-01-07T00:18:57;98530.75;;;0.15;100.00
77877;BME280;67251;50.844;7.978;2024-01-07T00:21:23;98530.75;;;0.15;100.00
77877;BME280;67251;50.844;7.978;2024-01-07T00:23:49;98533.38;;;0.15;100.00
77877;BME280;67251;50.844;7.978;2024-01-07T00:26:14;98550.00;;;0.15;100.00
77877;BME280;67251;50.844;7.978;2024-01-07T00:28:40;98534.34;;;0.14;100.00
77877;BME280;67251;50.844;7.978;2024-01-07T00:31:05;98547.63;;;0.12;100.00
77877;BME280;67251;50.844;7.978;2024-01-07T00:33:34;98544.84;;;0.14;100.00
77877;BME280;67251;50.844;7.978;2024-01-07T00:35:59;98553.72;;;0.13;100.00
77877;BME280;67251;50.844;7.978;2024-01-07T00:38:24;98550.13;;;0.14;100.00
77877;BME280;67251;50.844;7.978;2024-01-07T00:40:50;98551.81;;;0.15;100.00
77877;BME280;67251;50.844;7.978;2024-01-07T00:43:15;98548.34;;;0.14;100.00
77877;BME280;67251;50.844;7.978;2024-01-07T00:45:40;98557.06;;;0.15;100.00
77877;BME280;67251;50.844;7.978;2024-01-07T00:48:06;98547.38;;;0.15;100.00
77877;BME280;67251;50.844;7.978;2024-01-07T00:50:32;98556.91;;;0.16;100.00
77877;BME280;67251;50.844;7.978;2024-01-07T00:52:57;98558.72;;;0.16;100.00
77877;BME280;67251;50.844;7.978;2024-01-07T00:55:22;98557.88;;;0.15;100.00
77877;BME280;67251;50.844;7.978;2024-01-07T00:57:49;98564.97;;;0.15;100.00
77877;BME280;67251;50.844;7.978;2024-01-07T01:00:14;98563.97;;;0.16;100.00
77877;BME280;67251;50.844;7.978;2024-01-07T01:02:40;98567.59;;;0.15;100.00
77877;BME280;67251;50.844;7.978;2024-01-07T01:05:05;98570.22;;;0.15;100.00
77877;BME280;67251;50.844;7.978;2024-01-07T01:07:31;98565.91;;;0.14;100.00
77877;BME280;67251;50.844;7.978;2024-01-07T01:09:57;98567.59;;;0.15;100.00
77877;BME280;67251;50.844;7.978;2024-01-07T01:12:23;98571.03;;;0.15;100.00
77877;BME280;67251;50.844;7.978;2024-01-07T01:14:48;98576.16;;;0.17;100.00
77877;BME280;67251;50.844;7.978;2024-01-07T01:17:13;98576.16;;;0.17;100.00
77877;BME280;67251;50.844;7.978;2024-01-07T01:19:39;98580.75;;;0.15;100.00
77877;BME280;67251;50.844;7.978;2024-01-07T01:22:04;98582.53;;;0.14;100.00
77877;BME280;67251;50.844;7.978;2024-01-07T01:24:29;98591.38;;;0.13;100.00
77877;BME280;67251;50.844;7.978;2024-01-07T01:26:55;98588.06;;;0.11;100.00
77877;BME280;67251;50.844;7.978;2024-01-07T01:29:20;98588.34;;;0.08;100.00
77877;BME280;67251;50.844;7.978;2024-01-07T01:31:45;98598.03;;;0.08;100.00
77877;BME280;67251;50.844;7.978;2024-01-07T01:34:11;98601.91;;;0.04;100.00
77877;BME280;67251;50.844;7.978;2024-01-07T01:36:36;98608.44;;;-0.01;100.00
77877;BME280;67251;50.844;7.978;2024-01-07T01:39:02;98606.38;;;-0.07;100.00
77877;BME280;67251;50.844;7.978;2024-01-07T01:46:50;98613.59;;;-0.28;100.00
77877;BME280;67251;50.844;7.978;2024-01-07T01:49:16;98609.16;;;-0.37;100.00
77877;BME280;67251;50.844;7.978;2024-01-07T01:51:41;98619.38;;;-0.44;100.00
77877;BME280;67251;50.844;7.978;2024-01-07T01:54:07;98619.22;;;-0.52;100.00
77877;BME280;67251;50.844;7.978;2024-01-07T01:56:33;98617.13;;;-0.58;100.00
77877;BME280;67251;50.844;7.978;2024-01-07T01:58:59;98621.97;;;-0.63;100.00
77877;BME280;67251;50.844;7.978;2024-01-07T02:01:24;98613.81;;;-0.70;100.00
77877;BME280;67251;50.844;7.978;2024-01-07T02:03:50;98623.03;;;-0.75;100.00
77877;BME280;67251;50.844;7.978;2024-01-07T02:06:18;98622.50;;;-0.79;100.00
77877;BME280;67251;50.844;7.978;2024-01-07T02:08:43;98625.25;;;-0.81;100.00
77877;BME280;67251;50.844;7.978;2024-01-07T02:11:19;98624.56;;;-0.83;100.00
77877;BME280;67251;50.844;7.978;2024-01-07T02:13:45;98623.88;;;-0.85;100.00
77877;BME280;67251;50.844;7.978;2024-01-07T02:16:10;98626.91;;;-0.89;100.00
77877;BME280;67251;50.844;7.978;2024-01-07T02:18:37;98629.66;;;-0.91;100.00
77877;BME280;67251;50.844;7.978;2024-01-07T02:21:03;98625.38;;;-0.92;100.00
77877;BME280;67251;50.844;7.978;2024-01-07T02:23:28;98624.53;;;-0.92;100.00
77877;BME280;67251;50.844;7.978;2024-01-07T02:25:54;98629.94;;;-0.94;100.00
77877;BME280;67251;50.844;7.978;2024-01-07T02:28:19;98630.06;;;-0.95;100.00
77877;BME280;67251;50.844;7.978;2024-01-07T02:30:44;98627.56;;;-0.97;100.00
77877;BME280;67251;50.844;7.978;2024-01-07T02:33:10;98627.72;;;-0.98;100.00
77877;BME280;67251;50.844;7.978;2024-01-07T02:35:35;98629.47;;;-0.99;100.00
77877;BME280;67251;50.844;7.978;2024-01-07T02:38:01;98627.81;;;-1.00;100.00
77877;BME280;67251;50.844;7.978;2024-01-07T02:40:26;98627.16;;;-1.02;100.00
77877;BME280;67251;50.844;7.978;2024-01-07T02:42:51;98635.13;;;-1.04;100.00
77877;BME280;67251;50.844;7.978;2024-01-07T02:45:17;98641.34;;;-1.05;100.00
77877;BME280;67251;50.844;7.978;2024-01-07T02:47:42;98636.25;;;-1.06;100.00
77877;BME280;67251;50.844;7.978;2024-01-07T02:50:07;98632.94;;;-1.08;100.00
77877;BME280;67251;50.844;7.978;2024-01-07T02:52:33;98632.22;;;-1.10;100.00
77877;BME280;67251;50.844;7.978;2024-01-07T02:54:59;98636.63;;;-1.11;100.00
77877;BME280;67251;50.844;7.978;2024-01-07T02:57:26;98634.16;;;-1.12;100.00
77877;BME280;67251;50.844;7.978;2024-01-07T02:59:51;98639.53;;;-1.14;100.00
77877;BME280;67251;50.844;7.978;2024-01-07T03:02:17;98632.63;;;-1.15;100.00
77877;BME280;67251;50.844;7.978;2024-01-07T03:04:43;98643.25;;;-1.16;100.00
77877;BME280;67251;50.844;7.978;2024-01-07T03:07:08;98646.72;;;-1.16;100.00
77877;BME280;67251;50.844;7.978;2024-01-07T03:09:33;98643.38;;;-1.18;100.00
77877;BME280;67251;50.844;7.978;2024-01-07T03:11:59;98644.34;;;-1.19;100.00
77877;BME280;67251;50.844;7.978;2024-01-07T03:14:24;98653.19;;;-1.20;100.00
77877;BME280;67251;50.844;7.978;2024-01-07T03:16:50;98649.88;;;-1.22;100.00
77877;BME280;67251;50.844;7.978;2024-01-07T03:19:15;98657.84;;;-1.23;100.00
77877;BME280;67251;50.844;7.978;2024-01-07T03:21:40;98654.41;;;-1.24;100.00
77877;BME280;67251;50.844;7.978;2024-01-07T03:24:06;98654.41;;;-1.24;100.00
77877;BME280;67251;50.844;7.978;2024-01-07T03:26:32;98651.78;;;-1.24;100.00
77877;BME280;67251;50.844;7.978;2024-01-07T03:28:58;98658.97;;;-1.26;100.00
77877;BME280;67251;50.844;7.978;2024-01-07T03:31:25;98652.16;;;-1.29;100.00
77877;BME280;67251;50.844;7.978;2024-01-07T03:33:50;98652.16;;;-1.29;100.00
77877;BME280;67251;50.844;7.978;2024-01-07T03:36:16;98653.13;;;-1.30;100.00
77877;BME280;67251;50.844;7.978;2024-01-07T03:38:41;98657.56;;;-1.30;100.00
77877;BME280;67251;50.844;7.978;2024-01-07T03:41:07;98651.47;;;-1.31;100.00
77877;BME280;67251;50.844;7.978;2024-01-07T03:43:32;98655.91;;;-1.31;100.00
77877;BME280;67251;50.844;7.978;2024-01-07T03:45:58;98658.53;;;-1.31;100.00
77877;BME280;67251;50.844;7.978;2024-01-07T03:48:24;98658.53;;;-1.31;100.00
77877;BME280;67251;50.844;7.978;2024-01-07T03:50:49;98654.94;;;-1.30;100.00
77877;BME280;67251;50.844;7.978;2024-01-07T03:53:15;98658.38;;;-1.30;100.00
77877;BME280;67251;50.844;7.978;2024-01-07T03:55:40;98653.97;;;-1.29;100.00
77877;BME280;67251;50.844;7.978;2024-01-07T03:58:06;98656.59;;;-1.29;100.00
77877;BME280;67251;50.844;7.978;2024-01-07T04:00:32;98666.13;;;-1.28;100.00
77877;BME280;67251;50.844;7.978;2024-01-07T04:02:58;98664.31;;;-1.27;100.00
77877;BME280;67251;50.844;7.978;2024-01-07T04:05:23;98662.56;;;-1.27;100.00
77877;BME280;67251;50.844;7.978;2024-01-07T04:07:49;98667.66;;;-1.25;100.00
77877;BME280;67251;50.844;7.978;2024-01-07T04:10:18;98661.44;;;-1.24;100.00
77877;BME280;67251;50.844;7.978;2024-01-07T04:12:44;98666.56;;;-1.23;100.00
77877;BME280;67251;50.844;7.978;2024-01-07T04:15:10;98667.28;;;-1.21;100.00
77877;BME280;67251;50.844;7.978;2024-01-07T04:17:36;98667.13;;;-1.19;100.00
77877;BME280;67251;50.844;7.978;2024-01-07T04:20:01;98670.59;;;-1.19;100.00
77877;BME280;67251;50.844;7.978;2024-01-07T04:22:27;98676.56;;;-1.17;100.00
77877;BME280;67251;50.844;7.978;2024-01-07T04:24:52;98672.13;;;-1.16;100.00
77877;BME280;67251;50.844;7.978;2024-01-07T04:27:17;98678.06;;;-1.14;100.00
77877;BME280;67251;50.844;7.978;2024-01-07T04:29:43;98677.00;;;-1.12;100.00
77877;BME280;67251;50.844;7.978;2024-01-07T04:32:08;98676.84;;;-1.10;100.00
77877;BME280;67251;50.844;7.978;2024-01-07T04:34:33;98678.50;;;-1.09;100.00
77877;BME280;67251;50.844;7.978;2024-01-07T04:36:58;98673.25;;;-1.09;100.00
77877;BME280;67251;50.844;7.978;2024-01-07T04:39:24;98686.38;;;-1.09;100.00
77877;BME280;67251;50.844;7.978;2024-01-07T04:41:49;98684.47;;;-1.07;100.00
77877;BME280;67251;50.844;7.978;2024-01-07T04:44:14;98688.75;;;-1.06;100.00
77877;BME280;67251;50.844;7.978;2024-01-07T04:46:40;98691.00;;;-1.01;100.00
77877;BME280;67251;50.844;7.978;2024-01-07T04:49:06;98697.66;;;-0.97;100.00
77877;BME280;67251;50.844;7.978;2024-01-07T04:51:32;98696.69;;;-0.96;100.00
77877;BME280;67251;50.844;7.978;2024-01-07T04:53:57;98701.78;;;-0.95;100.00
77877;BME280;67251;50.844;7.978;2024-01-07T04:56:23;98707.03;;;-0.95;100.00
77877;BME280;67251;50.844;7.978;2024-01-07T04:58:48;98708.72;;;-0.94;100.00
77877;BME280;67251;50.844;7.978;2024-01-07T05:01:14;98701.94;;;-0.96;100.00
77877;BME280;67251;50.844;7.978;2024-01-07T05:03:39;98709.81;;;-0.96;100.00
77877;BME280;67251;50.844;7.978;2024-01-07T05:06:05;98708.97;;;-0.97;100.00
77877;BME280;67251;50.844;7.978;2024-01-07T05:08:30;98717.69;;;-0.96;100.00
77877;BME280;67251;50.844;7.978;2024-01-07T05:10:56;98715.88;;;-0.96;100.00
77877;BME280;67251;50.844;7.978;2024-01-07T05:13:22;98721.00;;;-0.94;100.00
77877;BME280;67251;50.844;7.978;2024-01-07T05:15:47;98720.50;;;-0.88;100.00
77877;BME280;67251;50.844;7.978;2024-01-07T05:18:22;98718.44;;;-0.85;100.00
77877;BME280;67251;50.844;7.978;2024-01-07T05:20:48;98720.66;;;-0.80;100.00
77877;BME280;67251;50.844;7.978;2024-01-07T05:23:14;98725.78;;;-0.79;100.00
77877;BME280;67251;50.844;7.978;2024-01-07T05:25:39;98735.19;;;-0.76;100.00
77877;BME280;67251;50.844;7.978;2024-01-07T05:28:05;98734.09;;;-0.73;100.00
77877;BME280;67251;50.844;7.978;2024-01-07T05:30:31;98733.00;;;-0.71;100.00
77877;BME280;67251;50.844;7.978;2024-01-07T05:32:57;98735.22;;;-0.66;100.00
77877;BME280;67251;50.844;7.978;2024-01-07T05:35:22;98740.22;;;-0.63;100.00
77877;BME280;67251;50.844;7.978;2024-01-07T05:37:47;98745.22;;;-0.60;100.00
77877;BME280;67251;50.844;7.978;2024-01-07T05:40:13;98745.91;;;-0.58;100.00
77877;BME280;67251;50.844;7.978;2024-01-07T05:42:38;98749.25;;;-0.56;100.00
77877;BME280;67251;50.844;7.978;2024-01-07T05:45:03;98746.47;;;-0.55;100.00
77877;BME280;67251;50.844;7.978;2024-01-07T05:47:29;98752.56;;;-0.54;100.00
77877;BME280;67251;50.844;7.978;2024-01-07T05:49:55;98755.19;;;-0.54;100.00
77877;BME280;67251;50.844;7.978;2024-01-07T05:52:20;98751.72;;;-0.55;100.00
77877;BME280;67251;50.844;7.978;2024-01-07T05:54:46;98763.22;;;-0.56;100.00
77877;BME280;67251;50.844;7.978;2024-01-07T05:57:12;98758.78;;;-0.55;100.00
77877;BME280;67251;50.844;7.978;2024-01-07T05:59:37;98764.88;;;-0.55;100.00
77877;BME280;67251;50.844;7.978;2024-01-07T06:02:03;98761.28;;;-0.54;100.00
77877;BME280;67251;50.844;7.978;2024-01-07T06:04:28;98769.00;;;-0.52;100.00
77877;BME280;67251;50.844;7.978;2024-01-07T06:06:54;98770.97;;;-0.54;100.00
77877;BME280;67251;50.844;7.978;2024-01-07T06:09:19;98774.41;;;-0.54;100.00
77877;BME280;67251;50.844;7.978;2024-01-07T06:11:44;98782.31;;;-0.54;100.00
77877;BME280;67251;50.844;7.978;2024-01-07T06:14:10;98778.59;;;-0.51;100.00
77877;BME280;67251;50.844;7.978;2024-01-07T06:16:35;98781.22;;;-0.51;100.00
77877;BME280;67251;50.844;7.978;2024-01-07T06:19:00;98791.59;;;-0.49;100.00
77877;BME280;67251;50.844;7.978;2024-01-07T06:21:26;98791.72;;;-0.51;100.00
77877;BME280;67251;50.844;7.978;2024-01-07T06:23:52;98797.81;;;-0.50;100.00
77877;BME280;67251;50.844;7.978;2024-01-07T06:26:17;98798.66;;;-0.50;100.00
77877;BME280;67251;50.844;7.978;2024-01-07T06:28:43;98804.72;;;-0.49;100.00
77877;BME280;67251;50.844;7.978;2024-01-07T06:31:08;98803.75;;;-0.48;100.00
77877;BME280;67251;50.844;7.978;2024-01-07T06:33:33;98802.78;;;-0.47;100.00
77877;BME280;67251;50.844;7.978;2024-01-07T06:36:00;98813.03;;;-0.44;100.00
77877;BME280;67251;50.844;7.978;2024-01-07T06:38:25;98815.66;;;-0.44;100.00
77877;BME280;67251;50.844;7.978;2024-01-07T06:40:50;98827.84;;;-0.43;100.00
77877;BME280;67251;50.844;7.978;2024-01-07T06:43:16;98828.81;;;-0.44;100.00
77877;BME280;67251;50.844;7.978;2024-01-07T06:45:42;98828.81;;;-0.44;100.00
77877;BME280;67251;50.844;7.978;2024-01-07T06:48:08;98837.53;;;-0.44;100.00
77877;BME280;67251;50.844;7.978;2024-01-07T06:50:33;98833.09;;;-0.43;100.00
77877;BME280;67251;50.844;7.978;2024-01-07T06:52:59;98832.28;;;-0.44;100.00
77877;BME280;67251;50.844;7.978;2024-01-07T06:55:24;98841.00;;;-0.43;100.00
77877;BME280;67251;50.844;7.978;2024-01-07T06:57:50;98852.22;;;-0.41;100.00
77877;BME280;67251;50.844;7.978;2024-01-07T07:00:15;98853.19;;;-0.42;100.00
77877;BME280;67251;50.844;7.978;2024-01-07T07:02:41;98859.28;;;-0.42;100.00
77877;BME280;67251;50.844;7.978;2024-01-07T07:05:06;98860.09;;;-0.41;100.00
77877;BME280;67251;50.844;7.978;2024-01-07T07:07:33;98858.31;;;-0.41;100.00
77877;BME280;67251;50.844;7.978;2024-01-07T07:09:59;98866.19;;;-0.41;100.00
77877;BME280;67251;50.844;7.978;2024-01-07T07:12:24;98860.94;;;-0.41;100.00
77877;BME280;67251;50.844;7.978;2024-01-07T07:14:49;98865.38;;;-0.41;100.00
77877;BME280;67251;50.844;7.978;2024-01-07T07:17:15;98869.66;;;-0.40;100.00
77877;BME280;67251;50.844;7.978;2024-01-07T07:19:40;98878.38;;;-0.40;100.00
77877;BME280;67251;50.844;7.978;2024-01-07T07:22:06;98888.06;;;-0.40;100.00
77877;BME280;67251;50.844;7.978;2024-01-07T07:24:31;98889.56;;;-0.38;100.00
77877;BME280;67251;50.844;7.978;2024-01-07T07:26:56;98896.63;;;-0.38;100.00
77877;BME280;67251;50.844;7.978;2024-01-07T07:29:22;98889.47;;;-0.36;100.00
77877;BME280;67251;50.844;7.978;2024-01-07T07:31:47;98898.31;;;-0.37;100.00
77877;BME280;67251;50.844;7.978;2024-01-07T07:34:12;98897.47;;;-0.38;100.00
77877;BME280;67251;50.844;7.978;2024-01-07T07:36:38;98907.03;;;-0.37;100.00
77877;BME280;67251;50.844;7.978;2024-01-07T07:39:06;98905.09;;;-0.35;100.00
77877;BME280;67251;50.844;7.978;2024-01-07T07:41:31;98909.38;;;-0.34;100.00
77877;BME280;67251;50.844;7.978;2024-01-07T07:43:56;98909.38;;;-0.34;100.00
77877;BME280;67251;50.844;7.978;2024-01-07T07:46:22;98912.84;;;-0.33;100.00
77877;BME280;67251;50.844;7.978;2024-01-07T07:48:47;98918.81;;;-0.31;100.00
77877;BME280;67251;50.844;7.978;2024-01-07T07:51:13;98925.59;;;-0.29;100.00
77877;BME280;67251;50.844;7.978;2024-01-07T07:53:39;98923.81;;;-0.28;100.00
77877;BME280;67251;50.844;7.978;2024-01-07T07:56:08;98927.28;;;-0.28;100.00
77877;BME280;67251;50.844;7.978;2024-01-07T07:58:33;98928.13;;;-0.27;100.00
77877;BME280;67251;50.844;7.978;2024-01-07T08:00:59;98935.88;;;-0.26;100.00
77877;BME280;67251;50.844;7.978;2024-01-07T08:03:24;98936.00;;;-0.27;100.00
77877;BME280;67251;50.844;7.978;2024-01-07T08:05:49;98938.50;;;-0.26;100.00
77877;BME280;67251;50.844;7.978;2024-01-07T08:08:15;98940.88;;;-0.22;100.00
77877;BME280;67251;50.844;7.978;2024-01-07T08:10:42;98942.38;;;-0.20;100.00
77877;BME280;67251;50.844;7.978;2024-01-07T08:13:07;98938.78;;;-0.19;100.00
77877;BME280;67251;50.844;7.978;2024-01-07T08:15:34;98939.38;;;-0.15;100.00
77877;BME280;67251;50.844;7.978;2024-01-07T08:17:59;98946.03;;;-0.11;100.00
77877;BME280;67251;50.844;7.978;2024-01-07T08:20:25;98946.88;;;-0.11;100.00
77877;BME280;67251;50.844;7.978;2024-01-07T08:22:50;98950.06;;;-0.07;100.00
77877;BME280;67251;50.844;7.978;2024-01-07T08:25:16;98956.88;;;-0.05;100.00
77877;BME280;67251;50.844;7.978;2024-01-07T08:27:41;98965.72;;;-0.06;100.00
77877;BME280;67251;50.844;7.978;2024-01-07T08:30:07;98959.63;;;-0.06;100.00
77877;BME280;67251;50.844;7.978;2024-01-07T08:32:33;98970.03;;;-0.05;100.00
77877;BME280;67251;50.844;7.978;2024-01-07T08:34:58;98969.91;;;-0.03;100.00
77877;BME280;67251;50.844;7.978;2024-01-07T08:37:24;98980.41;;;-0.03;100.00
77877;BME280;67251;50.844;7.978;2024-01-07T08:39:49;98978.75;;;-0.04;100.00
77877;BME280;67251;50.844;7.978;2024-01-07T08:42:15;98981.09;;;-0.01;100.00
77877;BME280;67251;50.844;7.978;2024-01-07T08:44:41;98980.03;;;0.02;100.00
77877;BME280;67251;50.844;7.978;2024-01-07T08:47:06;98988.75;;;0.02;100.00
77877;BME280;67251;50.844;7.978;2024-01-07T08:49:31;98983.63;;;0.01;100.00
77877;BME280;67251;50.844;7.978;2024-01-07T08:52:00;98995.09;;;-0.01;100.00
77877;BME280;67251;50.844;7.978;2024-01-07T08:54:25;99004.53;;;0.02;100.00
77877;BME280;67251;50.844;7.978;2024-01-07T08:56:51;99004.13;;;0.07;100.00
77877;BME280;67251;50.844;7.978;2024-01-07T08:59:16;99010.66;;;0.12;100.00
77877;BME280;67251;50.844;7.978;2024-01-07T09:01:42;99009.31;;;0.18;100.00
77877;BME280;67251;50.844;7.978;2024-01-07T09:04:07;99015.97;;;0.22;100.00
77877;BME280;67251;50.844;7.978;2024-01-07T09:06:32;99015.19;;;0.31;100.00
77877;BME280;67251;50.844;7.978;2024-01-07T09:08:58;99021.84;;;0.35;100.00
77877;BME280;67251;50.844;7.978;2024-01-07T09:11:23;99022.44;;;0.39;100.00
77877;BME280;67251;50.844;7.978;2024-01-07T09:13:49;99022.69;;;0.36;100.00
77877;BME280;67251;50.844;7.978;2024-01-07T09:16:15;99026.44;;;0.33;100.00
77877;BME280;67251;50.844;7.978;2024-01-07T09:18:41;99031.22;;;0.28;100.00
77877;BME280;67251;50.844;7.978;2024-01-07T09:21:06;99031.13;;;0.30;100.00
77877;BME280;67251;50.844;7.978;2024-01-07T09:23:32;99037.66;;;0.35;100.00
77877;BME280;67251;50.844;7.978;2024-01-07T09:25:59;99041.66;;;0.30;97.71
77877;BME280;67251;50.844;7.978;2024-01-07T09:28:24;99047.50;;;0.33;97.51
77877;BME280;67251;50.844;7.978;2024-01-07T09:30:50;99048.47;;;0.42;97.80
77877;BME280;67251;50.844;7.978;2024-01-07T09:33:15;99047.41;;;0.44;97.07
77877;BME280;67251;50.844;7.978;2024-01-07T09:35:41;99050.22;;;0.53;97.67
77877;BME280;67251;50.844;7.978;2024-01-07T09:38:07;99049.94;;;0.56;96.99
77877;BME280;67251;50.844;7.978;2024-01-07T09:40:32;99052.25;;;0.49;96.82
77877;BME280;67251;50.844;7.978;2024-01-07T09:42:57;99052.94;;;0.51;97.18
77877;BME280;67251;50.844;7.978;2024-01-07T09:45:24;99053.78;;;0.51;97.09
77877;BME280;67251;50.844;7.978;2024-01-07T09:47:51;99060.19;;;0.59;97.68
77877;BME280;67251;50.844;7.978;2024-01-07T09:50:16;99058.66;;;0.56;97.44
77877;BME280;67251;50.844;7.978;2024-01-07T09:52:45;99069.31;;;0.55;96.14
77877;BME280;67251;50.844;7.978;2024-01-07T09:55:22;99071.28;;;0.53;96.98
77877;BME280;67251;50.844;7.978;2024-01-07T09:57:50;99060.16;;;0.49;93.76
77877;BME280;67251;50.844;7.978;2024-01-07T10:00:16;99070.84;;;0.47;94.95
77877;BME280;67251;50.844;7.978;2024-01-07T10:02:41;99066.25;;;0.49;94.61
77877;BME280;67251;50.844;7.978;2024-01-07T10:05:07;99075.84;;;0.60;94.95
77877;BME280;67251;50.844;7.978;2024-01-07T10:07:32;99073.81;;;0.64;94.96
77877;BME280;67251;50.844;7.978;2024-01-07T10:10:16;99066.91;;;0.72;94.48
77877;BME280;67251;50.844;7.978;2024-01-07T10:12:44;99071.81;;;0.87;94.90
77877;BME280;67251;50.844;7.978;2024-01-07T10:15:10;99074.00;;;0.82;94.61
77877;BME280;67251;50.844;7.978;2024-01-07T10:17:35;99075.25;;;0.77;92.83
77877;BME280;67251;50.844;7.978;2024-01-07T10:20:01;99076.78;;;0.80;92.66
77877;BME280;67251;50.844;7.978;2024-01-07T10:22:26;99083.16;;;0.87;92.97
77877;BME280;67251;50.844;7.978;2024-01-07T10:24:52;99078.72;;;0.78;91.39
77877;BME280;67251;50.844;7.978;2024-01-07T10:27:17;99082.88;;;0.81;90.63
77877;BME280;67251;50.844;7.978;2024-01-07T10:29:43;99074.41;;;0.77;89.77
77877;BME280;67251;50.844;7.978;2024-01-07T10:32:08;99070.13;;;0.76;89.63
77877;BME280;67251;50.844;7.978;2024-01-07T10:34:35;99077.97;;;0.66;89.03
77877;BME280;67251;50.844;7.978;2024-01-07T10:37:02;99076.03;;;0.68;89.18
77877;BME280;67251;50.844;7.978;2024-01-07T10:39:28;99075.47;;;0.65;90.06
77877;BME280;67251;50.844;7.978;2024-01-07T10:41:55;99073.66;;;0.65;90.59
77877;BME280;67251;50.844;7.978;2024-01-07T10:44:27;99075.78;;;0.71;90.70
77877;BME280;67251;50.844;7.978;2024-01-07T10:46:56;99076.78;;;0.80;90.02
77877;BME280;67251;50.844;7.978;2024-01-07T10:49:23;99066.94;;;0.82;89.64
77877;BME280;67251;50.844;7.978;2024-01-07T10:52:02;99079.13;;;0.83;88.99
77877;BME280;67251;50.844;7.978;2024-01-07T10:54:29;99074.84;;;0.82;89.26
77877;BME280;67251;50.844;7.978;2024-01-07T10:56:58;99079.97;;;0.84;88.54
77877;BME280;67251;50.844;7.978;2024-01-07T10:59:24;99077.91;;;0.87;88.97
77877;BME280;67251;50.844;7.978;2024-01-07T11:01:49;99083.50;;;1.04;88.55
77877;BME280;67251;50.844;7.978;2024-01-07T11:04:22;99086.34;;;0.81;86.62
77877;BME280;67251;50.844;7.978;2024-01-07T11:07:19;99090.44;;;0.64;88.05
77877;BME280;67251;50.844;7.978;2024-01-07T11:09:56;99095.31;;;0.69;87.50
77877;BME280;67251;50.844;7.978;2024-01-07T11:12:29;99089.84;;;0.91;88.01
77877;BME280;67251;50.844;7.978;2024-01-07T11:14:55;99100.03;;;1.15;86.79
77877;BME280;67251;50.844;7.978;2024-01-07T11:17:42;99086.63;;;1.28;84.48
77877;BME280;67251;50.844;7.978;2024-01-07T11:20:17;99110.94;;;1.01;84.06
77877;BME280;67251;50.844;7.978;2024-01-07T11:22:43;99112.50;;;1.04;85.09
77877;BME280;67251;50.844;7.978;2024-01-07T11:25:47;99111.53;;;0.74;83.77
77877;BME280;67251;50.844;7.978;2024-01-07T11:28:12;99114.63;;;0.48;85.33
77877;BME280;67251;50.844;7.978;2024-01-07T11:30:38;99116.84;;;0.53;86.26
77877;BME280;67251;50.844;7.978;2024-01-07T11:33:11;99120.31;;;0.54;86.51
77877;BME280;67251;50.844;7.978;2024-01-07T11:38:18;99119.00;;;0.17;86.02
77877;BME280;67251;50.844;7.978;2024-01-07T11:40:44;99124.31;;;0.06;86.27
77877;BME280;67251;50.844;7.978;2024-01-07T11:43:10;99121.56;;;0.08;86.30
77877;BME280;67251;50.844;7.978;2024-01-07T11:45:36;99128.53;;;0.18;87.19
77877;BME280;67251;50.844;7.978;2024-01-07T11:48:04;99122.91;;;0.23;85.44
77877;BME280;67251;50.844;7.978;2024-01-07T11:50:30;99117.91;;;0.20;87.07
77877;BME280;67251;50.844;7.978;2024-01-07T11:52:55;99122.44;;;0.18;87.16
77877;BME280;67251;50.844;7.978;2024-01-07T11:55:21;99127.78;;;0.07;86.63
77877;BME280;67251;50.844;7.978;2024-01-07T11:57:46;99120.94;;;0.15;88.38
77877;BME280;67251;50.844;7.978;2024-01-07T12:00:12;99115.66;;;0.15;87.67
77877;BME280;67251;50.844;7.978;2024-01-07T12:02:37;99117.38;;;0.26;87.46
77877;BME280;67251;50.844;7.978;2024-01-07T12:05:03;99114.66;;;0.37;87.51
77877;BME280;67251;50.844;7.978;2024-01-07T12:07:29;99111.25;;;0.46;87.46
77877;BME280;67251;50.844;7.978;2024-01-07T12:09:56;99112.41;;;0.54;85.81
77877;BME280;67251;50.844;7.978;2024-01-07T12:12:22;99109.47;;;0.47;88.31
77877;BME280;67251;50.844;7.978;2024-01-07T12:14:47;99111.00;;;0.49;87.33
77877;BME280;67251;50.844;7.978;2024-01-07T12:17:13;99110.44;;;0.46;86.91
77877;BME280;67251;50.844;7.978;2024-01-07T12:19:39;99109.69;;;0.34;86.17
77877;BME280;67251;50.844;7.978;2024-01-07T12:22:08;99107.31;;;0.31;86.91
77877;BME280;67251;50.844;7.978;2024-01-07T12:24:34;99114.63;;;0.28;87.80
77877;BME280;67251;50.844;7.978;2024-01-07T12:27:06;99110.91;;;0.30;85.91
77877;BME280;67251;50.844;7.978;2024-01-07T12:29:32;99115.44;;;0.28;87.38
77877;BME280;67251;50.844;7.978;2024-01-07T12:31:57;99117.47;;;0.15;85.88
77877;BME280;67251;50.844;7.978;2024-01-07T12:34:22;99114.56;;;0.18;86.51
77877;BME280;67251;50.844;7.978;2024-01-07T12:36:49;99115.84;;;0.23;85.53
77877;BME280;67251;50.844;7.978;2024-01-07T12:39:14;99119.31;;;0.24;85.28
77877;BME280;67251;50.844;7.978;2024-01-07T12:41:40;99116.69;;;0.24;84.13
77877;BME280;67251;50.844;7.978;2024-01-07T12:44:05;99119.81;;;0.18;85.25
77877;BME280;67251;50.844;7.978;2024-01-07T12:46:34;99121.03;;;0.14;83.98
77877;BME280;67251;50.844;7.978;2024-01-07T12:48:59;99127.03;;;0.16;84.17
77877;BME280;67251;50.844;7.978;2024-01-07T12:51:25;99120.09;;;0.15;83.70
77877;BME280;67251;50.844;7.978;2024-01-07T12:53:50;99132.03;;;0.19;83.75
77877;BME280;67251;50.844;7.978;2024-01-07T12:56:16;99132.88;;;0.19;81.53
77877;BME280;67251;50.844;7.978;2024-01-07T12:58:41;99133.50;;;0.12;81.37
77877;BME280;67251;50.844;7.978;2024-01-07T13:01:06;99139.84;;;0.30;82.62